Time;durP1;ratioP1;P1;durP2;ratioP2;P2;SDS_P1;SDS_P2;PMS_P1;PMS_P2;Temp;Humidity;BMP_temperature;BMP_pressure;BME280_temperature;BME280_humidity;BME280_pressure;Samples;Min_cycle;Max_cycle;Signal;HPM_P1;HPM_P2
2022/01/23 00:00:18;;;;;;;0.70;0.70;;;;;;;4.83;72.63;102508.06;684462;28;138006;-68
2022/01/23 00:00:41;;;;;;;0.90;0.90;;;;;;;4.86;72.66;102505.19;684580;28;137918;-68
2022/01/23 00:01:09;;;;;;;0.82;0.82;;;;;;;4.85;72.79;102506.97;687096;28;70148;-68
2022/01/23 00:01:36;;;;;;;0.80;0.80;;;;;;;4.85;72.64;102508.81;684224;28;137602;-68
2022/01/23 00:02:08;;;;;;;0.80;0.80;;;;;;;4.85;72.75;102506.13;684084;28;137625;-68
2022/01/23 00:02:29;;;;;;;0.80;0.80;;;;;;;4.85;72.84;102509.66;683958;28;161290;-68
2022/01/23 00:02:51;;;;;;;0.90;0.90;;;;;;;4.86;72.49;102507.84;687888;28;45284;-68
2022/01/23 00:03:17;;;;;;;0.85;0.85;;;;;;;4.86;72.52;102510.53;688377;28;22420;-68
2022/01/23 00:03:44;;;;;;;0.80;0.80;;;;;;;4.83;72.60;102498.19;684570;28;137826;-68
2022/01/23 00:04:05;;;;;;;0.80;0.80;;;;;;;4.85;72.66;102509.66;685180;28;137860;-68
2022/01/23 00:04:27;;;;;;;0.73;0.73;;;;;;;4.85;72.64;102511.47;688680;28;23486;-68
2022/01/23 00:04:49;;;;;;;0.75;0.75;;;;;;;4.84;72.58;102509.75;687643;28;46296;-68
2022/01/23 00:05:10;;;;;;;0.90;0.90;;;;;;;4.84;72.81;102507.06;687542;28;44449;-68
2022/01/23 00:05:35;;;;;;;1.00;1.00;;;;;;;4.82;72.73;102503.63;688168;28;22360;-69
2022/01/23 00:05:57;;;;;;;0.90;0.90;;;;;;;4.83;72.86;102508.91;687953;28;36511;-68
2022/01/23 00:06:18;;;;;;;0.80;0.80;;;;;;;4.85;72.66;102511.47;686346;28;1433;-68
2022/01/23 00:06:40;;;;;;;0.80;0.80;;;;;;;4.84;72.80;102504.41;684638;28;22208;-68
2022/01/23 00:07:04;;;;;;;0.80;0.80;;;;;;;4.81;72.75;102505.47;684837;28;46331;-68
2022/01/23 00:07:26;;;;;;;0.90;0.90;;;;;;;4.85;72.62;102509.66;683206;28;92042;-68
2022/01/23 00:07:47;;;;;;;1.00;1.00;;;;;;;4.85;72.91;102514.16;686242;28;24462;-68
2022/01/23 00:08:10;;;;;;;0.98;0.98;;;;;;;4.85;72.73;102514.16;687192;28;47418;-68
2022/01/23 00:08:32;;;;;;;0.80;0.80;;;;;;;4.85;73.00;102514.16;686613;28;67503;-68
2022/01/23 00:08:54;;;;;;;0.70;0.70;;;;;;;4.85;72.83;102512.34;687309;28;48648;-68
2022/01/23 00:09:16;;;;;;;0.82;0.82;;;;;;;4.85;72.70;102519.50;688072;28;22413;-68
2022/01/23 00:09:39;;;;;;;0.70;0.70;;;;;;;4.85;72.77;102520.38;686592;28;69464;-68
2022/01/23 00:10:00;;;;;;;0.95;0.95;;;;;;;4.86;72.86;102518.56;687807;28;44219;-68
2022/01/23 00:10:21;;;;;;;1.00;1.00;;;;;;;4.83;72.95;102511.56;688123;28;22352;-68
2022/01/23 00:10:42;;;;;;;1.00;1.00;;;;;;;4.86;72.95;102519.41;688424;28;21482;-68
2022/01/23 00:11:04;;;;;;;0.90;0.90;;;;;;;4.87;72.97;102513.13;688661;28;22415;-68
2022/01/23 00:11:27;;;;;;;0.80;0.80;;;;;;;4.88;72.78;102520.16;687554;28;44280;-68
2022/01/23 00:11:52;;;;;;;0.90;0.90;;;;;;;4.89;72.83;102513.03;685016;28;93074;-68
2022/01/23 00:12:18;;;;;;;0.90;0.90;;;;;;;4.87;73.03;102513.13;685790;28;91103;-68
2022/01/23 00:12:45;;;;;;;0.90;0.90;;;;;;;4.85;72.63;102508.81;684564;28;137995;-68
2022/01/23 00:13:11;;;;;;;0.90;0.90;;;;;;;4.88;73.08;102511.28;684321;28;137832;-69
2022/01/23 00:13:37;;;;;;;0.70;0.70;;;;;;;4.90;73.16;102513.88;685574;28;115097;-68
2022/01/23 00:17:20;;;;;;;0.90;0.90;;;;;;;4.93;72.86;102522.56;682544;28;158061;-68
2022/01/23 00:17:41;;;;;;;0.90;0.90;;;;;;;4.94;73.03;102526.13;686351;28;90691;-68
2022/01/23 00:18:02;;;;;;;0.82;0.82;;;;;;;4.92;73.13;102515.50;688441;28;22337;-68
2022/01/23 00:18:23;;;;;;;0.80;0.80;;;;;;;4.95;72.94;102515.28;687628;28;47696;-68
2022/01/23 00:18:45;;;;;;;0.70;0.70;;;;;;;4.96;72.86;102516.16;688299;28;21499;-68
2022/01/23 00:19:07;;;;;;;0.75;0.75;;;;;;;4.96;72.78;102519.69;686803;28;46428;-68
2022/01/23 00:19:28;;;;;;;0.88;0.88;;;;;;;4.98;72.58;102524.94;688535;28;21368;-68
2022/01/23 00:19:50;;;;;;;0.80;0.80;;;;;;;5.00;72.82;102523.91;688222;28;22393;-68
2022/01/23 00:20:12;;;;;;;0.75;0.75;;;;;;;5.01;72.47;102525.59;687460;28;46339;-68
2022/01/23 00:20:35;;;;;;;1.00;1.00;;;;;;;5.01;72.60;102525.59;686697;28;67316;-68
2022/01/23 00:20:56;;;;;;;0.77;0.77;;;;;;;5.02;72.62;102521.13;687484;28;44415;-68
2022/01/23 00:21:17;;;;;;;0.70;0.70;;;;;;;5.02;72.46;102524.66;688166;28;22472;-68
2022/01/23 00:21:40;;;;;;;0.90;0.90;;;;;;;5.04;72.51;102527.25;688331;28;21525;-69
2022/01/23 00:22:02;;;;;;;0.90;0.90;;;;;;;5.05;72.41;102520.94;685535;28;89079;-68
2022/01/23 00:22:30;;;;;;;0.80;0.80;;;;;;;5.00;72.53;102523.91;686311;28;66914;-68
2022/01/23 00:22:55;;;;;;;0.93;0.93;;;;;;;5.08;72.59;102533.25;684561;28;137606;-68
2022/01/23 00:23:29;;;;;;;0.85;0.85;;;;;;;5.09;72.58;102537.66;685051;28;115127;-68
2022/01/23 00:30:32;;;;;;;0.80;0.80;;;;;;;5.15;72.79;102519.38;680121;28;137669;-68
2022/01/23 00:30:57;;;;;;;0.80;0.80;;;;;;;5.17;72.64;102525.53;683704;28;68452;-69
2022/01/23 00:31:19;;;;;;;0.90;0.90;;;;;;;5.19;72.52;102517.38;680995;28;136544;-68
2022/01/23 00:31:41;;;;;;;0.90;0.90;;;;;;;5.17;72.56;102517.50;684805;28;23266;-68
2022/01/23 00:32:03;;;;;;;0.80;0.80;;;;;;;5.17;72.42;102517.50;684741;28;45235;-68
2022/01/23 00:32:25;;;;;;;0.80;0.80;;;;;;;5.18;72.71;102515.66;685384;28;69433;-68
2022/01/23 00:32:46;;;;;;;0.80;0.80;;;;;;;5.18;72.54;102518.34;685316;28;23437;-68
2022/01/23 00:33:09;;;;;;;0.73;0.73;;;;;;;5.17;72.72;102513.94;686031;28;22476;-68
2022/01/23 00:33:32;;;;;;;0.80;0.80;;;;;;;5.19;72.51;102525.44;684043;28;67499;-68
2022/01/23 00:33:54;;;;;;;1.00;1.00;;;;;;;5.19;72.48;102514.72;683801;28;69420;-68
2022/01/23 00:34:16;;;;;;;0.90;0.90;;;;;;;5.20;72.62;102525.31;684771;28;47510;-68
2022/01/23 00:34:37;;;;;;;0.75;0.75;;;;;;;5.21;72.66;102523.50;685777;28;46159;-68
2022/01/23 00:34:58;;;;;;;0.80;0.80;;;;;;;5.22;72.59;102522.56;688627;28;22258;-68
2022/01/23 00:35:22;;;;;;;0.73;0.73;;;;;;;5.21;72.88;102521.66;685431;28;46423;-68
2022/01/23 00:35:46;;;;;;;0.60;0.60;;;;;;;5.23;72.47;102522.47;684090;28;67532;-68
2022/01/23 00:36:07;;;;;;;0.90;0.90;;;;;;;5.23;72.46;102522.47;684046;28;92325;-68
2022/01/23 00:36:29;;;;;;;0.80;0.80;;;;;;;5.23;72.64;102517.09;683732;28;21188;-68
2022/01/23 00:36:51;;;;;;;0.88;0.88;;;;;;;5.23;72.80;102521.56;682038;28;46290;-69
2022/01/23 00:37:12;;;;;;;0.80;0.80;;;;;;;5.24;72.85;102517.94;680993;28;44406;-68
2022/01/23 00:37:33;;;;;;;0.70;0.70;;;;;;;5.25;72.68;102522.34;680848;28;22240;-68
2022/01/23 00:37:55;;;;;;;0.77;0.77;;;;;;;5.26;72.51;102521.38;681465;28;23479;-68
2022/01/23 00:38:18;;;;;;;0.90;0.90;;;;;;;5.25;72.66;102519.69;682238;28;45233;-69
2022/01/23 00:38:39;;;;;;;0.98;0.98;;;;;;;5.26;72.35;102516.03;684065;28;69196;-68
2022/01/23 00:39:00;;;;;;;0.93;0.93;;;;;;;5.24;72.67;102507.22;682401;28;23340;-68
2022/01/23 00:39:21;;;;;;;0.90;0.90;;;;;;;5.28;72.74;102516.78;686253;28;22419;-68
2022/01/23 00:39:42;;;;;;;0.65;0.65;;;;;;;5.28;72.84;102514.09;685709;28;23730;-68
2022/01/23 00:40:05;;;;;;;0.65;0.65;;;;;;;5.28;72.77;102516.78;683153;28;22425;-68
2022/01/23 00:40:28;;;;;;;0.73;0.73;;;;;;;5.29;72.74;102507.78;681336;28;69465;-68
2022/01/23 00:40:49;;;;;;;0.80;0.80;;;;;;;5.30;72.76;102514.00;682142;28;69375;-68
2022/01/23 00:41:10;;;;;;;0.73;0.73;;;;;;;5.30;72.56;102514.00;684057;28;22404;-68
2022/01/23 00:41:32;;;;;;;0.80;0.80;;;;;;;5.30;72.96;102514.88;684750;28;23496;-69
2022/01/23 00:41:53;;;;;;;0.70;0.70;;;;;;;5.27;72.89;102503.50;686278;28;46508;-68
2022/01/23 00:42:14;;;;;;;0.60;0.60;;;;;;;5.30;72.71;102511.31;686576;28;45257;-68
2022/01/23 00:42:35;;;;;;;0.70;0.70;;;;;;;5.31;72.58;102516.56;688009;28;22413;-68
2022/01/23 00:42:58;;;;;;;0.80;0.80;;;;;;;5.32;72.32;102510.25;688231;28;21540;-68
2022/01/23 00:43:27;;;;;;;0.90;0.90;;;;;;;5.32;72.70;102518.31;684563;28;45266;-69
2022/01/23 00:43:49;;;;;;;0.73;0.73;;;;;;;5.32;72.75;102506.75;683005;28;136290;-68
2022/01/23 00:44:11;;;;;;;0.70;0.70;;;;;;;5.31;72.92;102513.91;684560;28;45301;-68
2022/01/23 00:44:35;;;;;;;0.77;0.77;;;;;;;5.33;72.77;102517.34;684540;28;46169;-68
2022/01/23 00:45:05;;;;;;;0.80;0.80;;;;;;;5.29;72.87;102504.25;680197;28;92203;-68
2022/01/23 00:45:33;;;;;;;1.00;1.00;;;;;;;5.34;72.83;102512.84;681229;28;137600;-68
2022/01/23 00:46:07;;;;;;;0.98;0.98;;;;;;;5.35;72.71;102512.75;681564;28;138011;-68
2022/01/23 00:46:33;;;;;;;0.85;0.85;;;;;;;5.38;72.76;102511.69;683138;28;160285;-69
2022/01/23 00:46:54;;;;;;;0.82;0.82;;;;;;;5.39;72.70;102508.91;684317;28;137838;-68
2022/01/23 00:47:15;;;;;;;0.90;0.90;;;;;;;5.40;72.59;102504.41;687691;28;21490;-68
2022/01/23 00:47:37;;;;;;;1.10;1.10;;;;;;;5.40;72.60;102509.78;687997;28;22316;-69
2022/01/23 00:48:03;;;;;;;1.10;1.10;;;;;;;5.40;72.41;102510.63;687371;28;44352;-68
2022/01/23 00:48:29;;;;;;;0.90;0.90;;;;;;;5.40;72.48;102507.94;683511;28;138183;-68
2022/01/23 00:49:24;;;;;;;0.90;0.90;;;;;;;5.41;72.28;102511.50;684028;28;138187;-68
2022/01/23 00:49:44;;;;;;;0.70;0.70;;;;;;;5.41;72.56;102512.34;686898;28;137731;-68
2022/01/23 00:50:06;;;;;;;1.00;1.00;;;;;;;5.42;72.57;102515.88;691177;28;21528;-68
2022/01/23 00:50:28;;;;;;;0.93;0.93;;;;;;;5.43;72.53;102514.94;689825;28;46247;-68
2022/01/23 00:50:51;;;;;;;0.75;0.75;;;;;;;5.42;72.56;102507.84;687528;28;47557;-68
2022/01/23 00:51:12;;;;;;;0.80;0.80;;;;;;;5.43;72.43;102506.91;686531;28;69489;-68
2022/01/23 00:51:35;;;;;;;0.90;0.90;;;;;;;5.44;72.80;102505.94;688071;28;22384;-68
2022/01/23 00:51:56;;;;;;;0.85;0.85;;;;;;;5.44;72.66;102505.94;685533;28;69300;-68
2022/01/23 00:52:18;;;;;;;1.05;1.05;;;;;;;5.44;72.58;102513.97;687575;28;21512;-68
2022/01/23 00:52:40;;;;;;;1.02;1.02;;;;;;;5.44;72.72;102513.97;687608;28;44253;-68
2022/01/23 00:53:02;;;;;;;0.90;0.90;;;;;;;5.45;72.63;102507.66;687294;28;45410;-68
2022/01/23 00:53:23;;;;;;;0.90;0.90;;;;;;;5.44;72.66;102507.75;684614;28;45230;-68
2022/01/23 00:53:44;;;;;;;0.80;0.80;;;;;;;5.46;72.76;102505.84;685937;28;23532;-68
2022/01/23 00:54:07;;;;;;;0.80;0.80;;;;;;;5.44;72.43;102505.94;685233;28;22398;-68
2022/01/23 00:54:30;;;;;;;0.90;0.90;;;;;;;5.45;72.60;102504.97;683377;28;92294;-68
2022/01/23 00:54:51;;;;;;;1.10;1.10;;;;;;;5.47;72.63;102504.88;684738;28;46429;-68
2022/01/23 00:55:12;;;;;;;1.10;1.10;;;;;;;5.48;72.63;102504.75;685477;28;21528;-68
2022/01/23 00:55:33;;;;;;;0.80;0.80;;;;;;;5.48;72.51;102504.75;685279;28;22376;-68
2022/01/23 00:55:55;;;;;;;0.70;0.70;;;;;;;5.50;72.43;102508.22;682950;28;21586;-68
2022/01/23 00:56:16;;;;;;;0.80;0.80;;;;;;;5.49;72.33;102497.59;682743;28;43695;-68
2022/01/23 00:56:37;;;;;;;0.80;0.80;;;;;;;5.51;72.50;102503.72;685808;28;22347;-68
2022/01/23 00:56:58;;;;;;;0.93;0.93;;;;;;;5.53;72.37;102507.16;661959;28;23482;-68
2022/01/23 00:57:19;;;;;;;0.90;0.90;;;;;;;5.53;72.17;102505.34;687656;28;23788;-68
2022/01/23 00:57:41;;;;;;;0.90;0.90;;;;;;;5.54;72.52;102501.69;685957;28;23481;-68
2022/01/23 00:58:02;;;;;;;0.80;0.80;;;;;;;5.55;72.36;102500.72;684440;28;46390;-68
2022/01/23 00:58:23;;;;;;;0.70;0.70;;;;;;;5.55;72.41;102500.72;685410;28;21539;-68
2022/01/23 00:58:45;;;;;;;0.50;0.50;;;;;;;5.55;72.26;102503.41;685323;28;22409;-68
2022/01/23 00:59:08;;;;;;;0.90;0.90;;;;;;;5.53;72.60;102496.41;683595;28;69373;-69
2022/01/23 00:59:29;;;;;;;1.00;1.00;;;;;;;5.56;72.10;102499.78;685112;28;44409;-68
2022/01/23 00:59:50;;;;;;;0.90;0.90;;;;;;;5.58;72.09;102497.84;683359;28;22412;-68
2022/01/23 01:00:12;;;;;;;0.80;0.80;;;;;;;5.59;72.18;102493.34;685642;28;23433;-68
2022/01/23 01:00:34;;;;;;;0.80;0.80;;;;;;;5.59;71.99;102496.91;683032;28;1605;-69
2022/01/23 01:00:55;;;;;;;0.70;0.70;;;;;;;5.60;71.94;102503.13;682150;28;44172;-68
2022/01/23 01:01:17;;;;;;;0.77;0.77;;;;;;;5.59;72.13;102494.22;683319;28;21519;-68
2022/01/23 01:01:38;;;;;;;0.98;0.98;;;;;;;5.60;72.17;102489.72;685272;28;45239;-68
2022/01/23 01:01:59;;;;;;;0.90;0.90;;;;;;;5.61;71.98;102496.78;685261;28;44205;-68
2022/01/23 01:02:21;;;;;;;0.90;0.90;;;;;;;5.60;72.15;102495.06;684477;28;21525;-68
2022/01/23 01:02:42;;;;;;;0.80;0.80;;;;;;;5.58;72.22;102489.81;683301;28;46394;-68
2022/01/23 01:03:03;;;;;;;0.80;0.80;;;;;;;5.62;72.08;102500.34;684116;28;21490;-68
2022/01/23 01:03:25;;;;;;;0.80;0.80;;;;;;;5.62;72.13;102492.28;684244;28;23491;-68
2022/01/23 01:03:47;;;;;;;0.80;0.80;;;;;;;5.61;72.06;102494.09;684376;28;23477;-68
2022/01/23 01:04:09;;;;;;;0.98;0.98;;;;;;;5.57;72.36;102485.41;683598;28;66191;-68
2022/01/23 01:04:30;;;;;;;1.08;1.08;;;;;;;5.60;72.45;102495.06;686035;28;22400;-68
2022/01/23 01:04:51;;;;;;;1.00;1.00;;;;;;;5.61;72.33;102499.44;684381;28;44199;-68
2022/01/23 01:05:13;;;;;;;0.90;0.90;;;;;;;5.56;72.21;102490.88;683072;28;22388;-68
2022/01/23 01:05:34;;;;;;;0.95;0.95;;;;;;;5.62;72.46;102497.66;681671;28;45287;-68
2022/01/23 01:05:59;;;;;;;0.90;0.90;;;;;;;5.59;72.19;102490.66;682790;28;44354;-68
2022/01/23 01:06:20;;;;;;;1.00;1.00;;;;;;;5.62;72.21;102492.28;678576;29;92108;-68
2022/01/23 01:06:41;;;;;;;0.90;0.90;;;;;;;5.62;72.12;102494.97;680976;28;21538;-68
2022/01/23 01:07:04;;;;;;;1.00;1.00;;;;;;;5.62;72.38;102497.66;683577;28;22413;-68
2022/01/23 01:07:25;;;;;;;0.80;0.80;;;;;;;5.63;72.16;102500.22;682469;28;63431;-68
2022/01/23 01:07:46;;;;;;;0.80;0.80;;;;;;;5.63;72.12;102497.56;683882;28;22388;-68
2022/01/23 01:08:08;;;;;;;0.77;0.77;;;;;;;5.65;71.76;102489.41;682353;28;21534;-68
2022/01/23 01:08:29;;;;;;;1.00;1.00;;;;;;;5.66;71.39;102489.31;682076;28;46418;-68
2022/01/23 01:08:54;;;;;;;1.00;1.00;;;;;;;5.66;71.38;102489.31;681167;28;21556;-68
2022/01/23 01:09:15;;;;;;;0.90;0.90;;;;;;;5.66;71.55;102492.00;679294;28;115072;-68
2022/01/23 01:09:36;;;;;;;0.90;0.90;;;;;;;5.67;71.60;102488.31;682880;28;23507;-68
2022/01/23 01:10:02;;;;;;;0.85;0.85;;;;;;;5.68;72.04;102491.88;683427;28;21534;-68
2022/01/23 01:10:29;;;;;;;0.90;0.90;;;;;;;5.67;71.88;102482.13;678838;28;138220;-68
2022/01/23 01:11:01;;;;;;;1.00;1.00;;;;;;;5.67;72.18;102484.78;680998;28;138114;-68
2022/01/23 01:11:55;;;;;;;1.02;1.02;;;;;;;5.65;72.00;102486.72;681559;28;138232;-68
2022/01/23 01:12:17;;;;;;;0.80;0.80;;;;;;;5.68;72.47;102490.06;677430;28;156499;-68
2022/01/23 01:12:41;;;;;;;0.85;0.85;;;;;;;5.67;72.14;102482.97;681614;28;136561;-68
2022/01/23 01:13:05;;;;;;;0.90;0.90;;;;;;;5.68;72.41;102492.72;683970;28;92009;-68
2022/01/23 01:13:32;;;;;;;0.90;0.90;;;;;;;5.66;72.43;102488.41;682125;28;69203;-68
2022/01/23 01:14:08;;;;;;;0.90;0.90;;;;;;;5.69;72.14;102485.53;679739;28;137994;-68
2022/01/23 01:14:59;;;;;;;0.90;0.90;;;;;;;5.68;72.17;102491.88;680248;28;135627;-68
2022/01/23 01:15:38;;;;;;;0.90;0.90;;;;;;;5.70;71.96;102490.81;681269;28;137700;-69
2022/01/23 01:16:22;;;;;;;0.90;0.90;;;;;;;5.72;71.88;102491.56;681328;28;135988;-68
2022/01/23 01:16:55;;;;;;;0.80;0.80;;;;;;;5.74;71.98;102494.16;681258;28;135808;-68
2022/01/23 01:17:24;;;;;;;0.90;0.90;;;;;;;5.75;71.66;102496.75;681520;28;137704;-68
2022/01/23 01:30:18;;;;;;;0.80;0.80;;;;;;;5.84;71.63;102489.03;677150;28;138607;-68
2022/01/23 01:30:53;;;;;;;0.90;0.90;;;;;;;5.84;72.00;102489.88;683123;28;135758;-68
2022/01/23 01:31:24;;;;;;;1.00;1.00;;;;;;;5.86;71.86;102492.47;685513;28;136401;-68
2022/01/23 01:31:50;;;;;;;0.90;0.90;;;;;;;5.87;71.78;102488.81;680280;28;160672;-68
2022/01/23 01:32:16;;;;;;;0.90;0.90;;;;;;;5.85;71.95;102494.28;679374;28;136168;-68
2022/01/23 01:32:49;;;;;;;0.80;0.80;;;;;;;5.85;71.91;102493.44;680834;28;116041;-68
2022/01/23 01:33:21;;;;;;;0.82;0.82;;;;;;;5.82;72.06;102489.13;679092;28;137607;-70
2022/01/23 01:33:47;;;;;;;1.00;1.00;;;;;;;5.85;71.44;102485.41;682693;28;135820;-68
2022/01/23 01:34:13;;;;;;;1.02;1.02;;;;;;;5.87;71.49;102492.34;682724;28;136347;-68
2022/01/23 01:34:40;;;;;;;0.80;0.80;;;;;;;5.88;71.60;102494.09;678463;28;138195;-68
2022/01/23 01:35:13;;;;;;;0.90;0.90;;;;;;;5.88;71.67;102495.91;678690;28;137876;-68
2022/01/23 01:35:39;;;;;;;0.90;0.90;;;;;;;5.87;72.05;102496.88;678423;28;135988;-68
2022/01/23 01:36:16;;;;;;;1.00;1.00;;;;;;;5.84;71.89;102489.88;680568;28;136324;-68
2022/01/23 01:36:47;;;;;;;0.70;0.70;;;;;;;5.88;71.55;102498.59;678748;28;137384;-68
2022/01/23 01:37:09;;;;;;;0.80;0.80;;;;;;;5.86;71.72;102497.81;678482;28;156341;-68
2022/01/23 01:37:31;;;;;;;0.80;0.80;;;;;;;5.85;71.87;102501.50;681145;28;69455;-69
2022/01/23 01:37:52;;;;;;;1.00;1.00;;;;;;;5.88;71.59;102507.50;681490;28;21351;-68
2022/01/23 01:38:14;;;;;;;0.90;0.90;;;;;;;5.88;71.07;102501.28;678390;28;44364;-68
2022/01/23 01:38:35;;;;;;;1.00;1.00;;;;;;;5.88;71.31;102503.97;674869;29;45284;-68
2022/01/23 01:38:57;;;;;;;0.90;0.90;;;;;;;5.85;71.91;102504.16;675770;29;21528;-68
2022/01/23 01:39:21;;;;;;;0.90;0.90;;;;;;;5.89;71.37;102516.38;678696;29;44335;-68
2022/01/23 01:39:43;;;;;;;0.80;0.80;;;;;;;5.87;71.60;102510.28;679312;29;69441;-68
2022/01/23 01:40:05;;;;;;;0.90;0.90;;;;;;;5.90;71.12;102512.75;679243;29;44273;-68
2022/01/23 01:40:27;;;;;;;1.00;1.00;;;;;;;5.91;71.43;102515.34;678085;29;67494;-68
2022/01/23 01:40:48;;;;;;;0.90;0.90;;;;;;;5.84;71.31;102507.81;682458;28;21244;-68
2022/01/23 01:41:09;;;;;;;0.90;0.90;;;;;;;5.91;71.68;102514.50;681315;28;44197;-68
2022/01/23 01:41:35;;;;;;;0.70;0.70;;;;;;;5.91;71.58;102519.84;683911;28;23470;-68
2022/01/23 01:41:57;;;;;;;0.70;0.70;;;;;;;5.92;71.23;102517.06;682084;28;138088;-68
2022/01/23 01:42:20;;;;;;;0.90;0.90;;;;;;;5.91;71.42;102517.16;683712;28;113697;-68
2022/01/23 01:42:41;;;;;;;0.90;0.90;;;;;;;5.93;71.55;102528.66;684125;28;46350;-68
2022/01/23 01:43:04;;;;;;;0.80;0.80;;;;;;;5.92;71.55;102525.13;681266;28;22446;-68
2022/01/23 01:43:27;;;;;;;0.80;0.80;;;;;;;5.92;71.45;102522.44;681103;28;70258;-68
2022/01/23 01:43:49;;;;;;;0.82;0.82;;;;;;;5.92;71.63;102525.13;682345;28;45146;-68
2022/01/23 01:44:12;;;;;;;0.70;0.70;;;;;;;5.93;71.59;102525.97;678610;28;89497;-68
2022/01/23 01:44:53;;;;;;;0.90;0.90;;;;;;;5.92;71.69;102525.13;680021;28;137342;-68
2022/01/23 01:45:21;;;;;;;0.90;0.90;;;;;;;5.93;71.79;102528.66;682555;28;116307;-68
2022/01/23 01:46:00;;;;;;;0.75;0.75;;;;;;;5.92;71.60;102518.88;683127;28;137339;-68
2022/01/23 01:46:34;;;;;;;0.60;0.60;;;;;;;5.95;71.17;102532.06;685132;28;136198;-68
2022/01/23 01:46:59;;;;;;;0.80;0.80;;;;;;;5.95;71.16;102526.72;680697;28;157744;-68
2022/01/23 01:47:25;;;;;;;0.90;0.90;;;;;;;5.97;71.06;102527.50;678750;28;138658;-68
2022/01/23 01:47:59;;;;;;;0.80;0.80;;;;;;;5.98;71.16;102529.22;677730;28;137649;-68
2022/01/23 01:48:24;;;;;;;0.70;0.70;;;;;;;5.98;71.17;102529.22;678167;28;115150;-68
2022/01/23 01:48:52;;;;;;;0.70;0.70;;;;;;;5.99;71.20;102522.03;680781;28;57449;-69
2022/01/23 01:49:22;;;;;;;1.10;1.10;;;;;;;5.99;71.09;102530.94;682500;28;2834;-68
2022/01/23 01:49:46;;;;;;;1.00;1.00;;;;;;;5.98;71.13;102520.31;679682;28;137851;-68
2022/01/23 01:50:09;;;;;;;0.90;0.90;;;;;;;5.99;71.24;102528.25;682427;28;14187;-68
2022/01/23 01:50:31;;;;;;;0.80;0.80;;;;;;;6.01;71.59;102528.16;680238;29;68075;-68
2022/01/23 01:50:59;;;;;;;0.65;0.65;;;;;;;6.00;71.69;102524.59;678903;28;113288;-68
2022/01/23 01:51:20;;;;;;;0.60;0.60;;;;;;;6.00;71.24;102532.66;684784;28;92086;-68
2022/01/23 01:51:54;;;;;;;0.82;0.82;;;;;;;6.01;71.04;102525.47;679799;28;137766;-68
2022/01/23 01:52:16;;;;;;;0.80;0.80;;;;;;;5.98;70.95;102518.50;683617;28;69379;-68
2022/01/23 01:52:37;;;;;;;0.70;0.70;;;;;;;6.01;70.95;102522.81;682278;28;67493;-68
2022/01/23 01:52:59;;;;;;;0.70;0.70;;;;;;;6.02;70.89;102522.69;683281;28;21294;-68
2022/01/23 01:53:20;;;;;;;0.70;0.70;;;;;;;6.00;70.67;102521.91;682914;28;22280;-68
2022/01/23 01:53:47;;;;;;;0.80;0.80;;;;;;;6.01;70.83;102520.13;683940;28;21542;-68
2022/01/23 01:54:12;;;;;;;1.00;1.00;;;;;;;5.99;70.74;102512.16;678649;28;137754;-68
2022/01/23 01:54:34;;;;;;;0.90;0.90;;;;;;;6.03;70.20;102520.88;682672;28;92304;-68
2022/01/23 01:55:02;;;;;;;0.80;0.80;;;;;;;6.03;70.83;102519.03;681921;28;69423;-68
2022/01/23 01:55:36;;;;;;;0.77;0.77;;;;;;;6.04;70.79;102520.75;679237;28;137295;-68
2022/01/23 01:55:58;;;;;;;0.65;0.65;;;;;;;6.05;70.85;102522.50;679453;28;137532;-68
2022/01/23 01:56:21;;;;;;;0.80;0.80;;;;;;;6.03;70.82;102521.72;681487;28;68369;-68
2022/01/23 01:56:50;;;;;;;0.90;0.90;;;;;;;6.04;70.79;102523.44;681280;28;22477;-68
2022/01/23 01:57:13;;;;;;;0.90;0.90;;;;;;;6.06;70.55;102524.19;680030;28;159090;-68
2022/01/23 01:58:02;;;;;;;0.70;0.70;;;;;;;6.07;70.89;102523.22;681857;28;161354;-68
2022/01/23 01:59:12;;;;;;;0.95;0.95;;;;;;;6.07;70.94;102525.06;685359;28;137760;-69
2022/01/23 02:00:14;;;;;;;0.60;0.60;;;;;;;6.07;71.07;102515.19;681678;28;137662;-68
2022/01/23 02:00:45;;;;;;;0.90;0.90;;;;;;;6.03;70.97;102510.13;684500;28;137186;-68
2022/01/23 02:02:39;;;;;;;0.98;0.98;;;;;;;6.05;70.99;102517.13;684924;28;137851;-68
2022/01/23 02:08:15;;;;;;;0.80;0.80;;;;;;;6.06;71.23;102505.41;680353;28;137325;-68
2022/01/23 02:08:32;;;;;;;0.70;0.70;;;;;;;6.09;70.76;102521.31;681293;28;136279;-68
2022/01/23 02:08:54;;;;;;;0.90;0.90;;;;;;;6.09;71.04;102517.78;683136;28;69441;-68
2022/01/23 02:09:23;;;;;;;1.00;1.00;;;;;;;6.09;70.99;102517.78;682330;28;67285;-68
2022/01/23 02:09:44;;;;;;;0.60;0.60;;;;;;;6.07;70.88;102517.88;680714;28;160749;-68
2022/01/23 02:10:10;;;;;;;0.70;0.70;;;;;;;6.09;70.96;102515.94;680818;28;135501;-68
2022/01/23 02:10:32;;;;;;;0.70;0.70;;;;;;;6.08;71.16;102516.91;684795;28;44397;-68
2022/01/23 02:10:58;;;;;;;0.80;0.80;;;;;;;6.09;71.01;102517.78;684339;28;45261;-69
2022/01/23 02:11:24;;;;;;;0.90;0.90;;;;;;;6.08;70.58;102518.72;679489;28;138192;-68
2022/01/23 02:12:12;;;;;;;0.75;0.75;;;;;;;6.09;70.77;102517.78;681251;28;137630;-68
2022/01/23 02:13:01;;;;;;;0.60;0.60;;;;;;;6.09;70.89;102523.13;679371;28;137555;-68
2022/01/23 02:13:28;;;;;;;0.88;0.88;;;;;;;6.09;70.84;102523.13;682979;28;137360;-68
2022/01/23 02:13:55;;;;;;;0.90;0.90;;;;;;;6.07;70.89;102520.56;682155;28;138524;-68
2022/01/23 02:14:31;;;;;;;0.60;0.60;;;;;;;6.09;70.85;102520.44;681506;28;137973;-68
2022/01/23 02:15:14;;;;;;;0.70;0.70;;;;;;;6.09;70.82;102525.81;681787;28;137545;-68
2022/01/23 02:16:59;;;;;;;0.75;0.75;;;;;;;6.11;70.36;102511.34;682835;28;137496;-68
2022/01/23 02:17:40;;;;;;;0.70;0.70;;;;;;;6.11;71.23;102522.06;682838;28;157939;-68
2022/01/23 02:18:19;;;;;;;0.90;0.90;;;;;;;6.12;70.72;102522.94;682624;28;137442;-68
2022/01/23 02:22:44;;;;;;;0.60;0.60;;;;;;;6.12;70.70;102522.94;681379;28;157882;-68
2022/01/23 02:23:43;;;;;;;0.70;0.70;;;;;;;6.13;70.70;102521.97;683509;28;138503;-69
2022/01/23 02:24:49;;;;;;;0.70;0.70;;;;;;;6.12;70.46;102523.78;682795;28;137391;-68
2022/01/23 02:25:39;;;;;;;0.65;0.65;;;;;;;6.13;70.83;102521.97;681714;28;135939;-68
2022/01/23 02:50:44;;;;;;;0.80;0.80;;;;;;;6.13;70.63;102521.97;678249;28;138308;-68
2022/01/23 02:51:14;;;;;;;0.80;0.80;;;;;;;6.15;70.65;102525.41;679076;28;137353;-68
2022/01/23 02:51:46;;;;;;;0.90;0.90;;;;;;;6.13;70.62;102522.81;674879;29;136076;-68
2022/01/23 02:52:16;;;;;;;0.70;0.70;;;;;;;6.15;70.47;102521.88;672134;29;158028;-68
2022/01/23 02:52:51;;;;;;;0.80;0.80;;;;;;;6.15;70.30;102524.56;674732;29;138005;-67
2022/01/23 02:53:31;;;;;;;0.80;0.80;;;;;;;6.16;70.32;102523.56;675290;29;136851;-68
2022/01/23 02:54:08;;;;;;;0.80;0.80;;;;;;;6.16;70.58;102524.44;677268;28;137731;-68
2022/01/23 02:54:45;;;;;;;0.70;0.70;;;;;;;6.16;70.24;102524.44;678094;28;137384;-68
2022/01/23 02:55:13;;;;;;;0.93;0.93;;;;;;;6.17;70.13;102525.28;680156;28;137943;-68
2022/01/23 02:55:40;;;;;;;0.90;0.90;;;;;;;6.17;70.06;102525.28;679929;28;137861;-68
2022/01/23 02:56:06;;;;;;;0.80;0.80;;;;;;;6.17;70.31;102520.78;681104;28;97963;-68
2022/01/23 02:56:34;;;;;;;0.90;0.90;;;;;;;6.19;70.54;102523.34;679802;28;114228;-68
2022/01/23 02:57:03;;;;;;;0.70;0.70;;;;;;;6.18;70.17;102517.16;676968;28;132179;-68
2022/01/23 02:57:50;;;;;;;0.80;0.80;;;;;;;6.20;70.56;102519.72;675947;29;138077;-68
2022/01/23 02:58:14;;;;;;;0.70;0.70;;;;;;;6.17;70.35;102515.41;677059;28;155512;-68
2022/01/23 02:58:48;;;;;;;0.80;0.80;;;;;;;6.18;70.78;102510.94;677344;29;115085;-69
2022/01/23 02:59:18;;;;;;;1.00;1.00;;;;;;;6.19;70.71;102515.31;679920;28;137611;-68
2022/01/23 02:59:40;;;;;;;0.85;0.85;;;;;;;6.19;70.61;102518.00;680625;28;136297;-68
2022/01/23 03:00:48;;;;;;;0.70;0.70;;;;;;;6.20;70.95;102514.34;685283;28;137772;-67
2022/01/23 03:01:32;;;;;;;0.80;0.80;;;;;;;6.20;71.02;102519.72;683470;28;137397;-68
2022/01/23 03:02:33;;;;;;;0.70;0.70;;;;;;;6.20;70.54;102507.16;683039;28;157058;-68
2022/01/23 03:03:11;;;;;;;0.50;0.50;;;;;;;6.23;70.66;102511.47;685094;28;160675;-69
2022/01/23 03:03:56;;;;;;;0.80;0.80;;;;;;;6.22;70.45;102507.06;684525;28;135731;-68
2022/01/23 03:04:29;;;;;;;0.65;0.65;;;;;;;6.23;70.78;102516.84;679831;28;137663;-67